Saint Paul, MN (55119)

2:36 PM CDT on August 02, 2015 (GMT -0500)
South Maplewood | | Change Station
CLOSE
Current Station
Personal Weather Station
Location: Maplewood, MN
Elevation: 1020 ft
Nearby Weather Stations

Elev 1020 ft 44.92 °N, 92.99 °W | Updated 4 seconds ago

Scattered Clouds
Scattered Clouds
82.5 °F
Feels Like 86 °F
N
0.0
Wind Variable Wind from West
Gusts 2.2 mph

Today
High -- | Low -- °F
--% Chance of Precip.
Yesterday
High -- | Low -- °F
Precip. -- in
5:58 AM 8:37 PM
Waning Gibbous, 92% visible
Pressure 29.65 in
Visibility 10.0 miles
Clouds Scattered Clouds 3400 ft
Heat Index 86 °F
Dew Point 68 °F
Humidity 63%
Rainfall 0.00 in
Snow Depth Not available.
UV 8 out of 12
Pollen 8.00 out of 12
Air Quality Not available.
Flu Activity Not available.
METAR KSTP 021853Z 33014KT 10SM SCT034 27/20 A2968 RMK AO2 PK WND 33026/1757 SLP041 T02720200

More Conditions Fewer Conditions

Pressure 29.65 in
Visibility 10.0 miles
Clouds Scattered Clouds 3400 ft
Heat Index 86 °F
Dew Point 68 °F
Humidity 63%
Rainfall 0.00 in
Snow Depth Not available.
UV 8 out of 12
Pollen 8.00 out of 12
Air Quality Not available.
Flu Activity Not available.
METAR KSTP 021853Z 33014KT 10SM SCT034 27/20 A2968 RMK AO2 PK WND 33026/1757 SLP041 T02720200

More Conditions Fewer Conditions

10-Day Weather Forecast

×

Almanac

Astronomy

Aug. 02, 2015 Rise Set
Actual Time
Civil Twilight
Nautical Twilight
Astronomical Twilight
Moon
Length of Visible Light
Length of Day
Tomorrow will be .
, % of the Moon is Illuminated

Today's Extremes

State Highs State Lows

Community

WunderPhotos

Upload Photos

1,843,344 photos uploaded!

WunderBlogs® & News

Nearby

Air Quality

  Air Quality AQ Index Pollutant
Not available.

Snow Depth

Station Depth Elevation

Earthquake Activity

City Distance Mag. Time & Date
Minimum magnitude displayed is 2.5.

Coastal Water Temperatures

Place Temperature

Stations

Nearby Weather Stations

Station Location Temp. Windchill Dew Point Humidity Wind Precip. Elev Updated Type